Terminal Aerodrome Forecast
Issued by NWS Cleveland, OH

Home | Current Version | Previous Version | Graphics & Text | Print | Product List | Glossary Off
Versions: 1 2 3 4 5 6 7 8 9 10 11 12 13 14 15 16 17 18 19 20 21

000
FTUS41 KCLE 021833 AAA
TAFMFD
TAF AMD
KMFD 021833Z 0219/0318 04010KT P6SM BKN035
     FM022200 04008KT P6SM SCT035
     FM030400 07004KT P6SM SCT015
     FM031500 10008KT P6SM BKN030=

USA.gov is the U.S. government's official web portal to all federal, state and local government web resources and services.